Time;durP1;ratioP1;P1;durP2;ratioP2;P2;SDS_P1;SDS_P2;PMS_P1;PMS_P2;Temp;Humidity;BMP_temperature;BMP_pressure;BME280_temperature;BME280_humidity;BME280_pressure;Samples;Min_cycle;Max_cycle;Signal;HPM_P1;HPM_P2
2024/03/29 00:03:23;;;;;;;3.50;1.00;;;;;9.50;98572.00;;;;10360255;28;20574;-86
2024/03/29 00:08:23;;;;;;;2.03;0.83;;;;;9.50;98569.00;;;;10347902;28;20226;-86
2024/03/29 00:13:24;;;;;;;3.03;0.57;;;;;9.50;98567.00;;;;10384816;28;20240;-88
2024/03/29 00:18:25;;;;;;;3.00;0.80;;;;;9.50;98576.00;;;;10371554;28;20226;-90
2024/03/29 00:23:28;;;;;;;3.07;1.20;;;;;9.60;98570.00;;;;10351962;28;20229;-80
2024/03/29 00:28:28;;;;;;;3.87;0.87;;;;;9.60;98569.00;;;;10354032;28;20234;-80
2024/03/29 00:33:30;;;;;;;4.57;0.73;;;;;9.70;98565.00;;;;10369940;28;20218;-80
2024/03/29 00:38:30;;;;;;;4.23;0.80;;;;;9.70;98566.00;;;;10344250;28;20215;-80
2024/03/29 00:43:31;;;;;;;3.80;1.00;;;;;9.70;98578.00;;;;10357783;28;20320;-80
2024/03/29 00:48:32;;;;;;;4.97;2.00;;;;;9.70;98565.00;;;;10370002;28;20228;-80
2024/03/29 00:53:33;;;;;;;2.60;0.90;;;;;9.70;98579.00;;;;10352919;28;20240;-79
2024/03/29 00:58:34;;;;;;;5.77;1.10;;;;;9.80;98570.00;;;;10352212;28;20705;-80
2024/03/29 01:03:35;;;;;;;4.17;0.90;;;;;9.80;98580.00;;;;10341073;28;20223;-81
2024/03/29 01:08:36;;;;;;;5.30;1.03;;;;;9.80;98586.00;;;;10334073;28;20269;-81
2024/03/29 01:13:37;;;;;;;6.00;1.17;;;;;9.90;98573.00;;;;10358661;28;20266;-80
2024/03/29 01:18:38;;;;;;;3.53;1.07;;;;;9.90;98572.00;;;;10361085;28;20218;-79
2024/03/29 01:23:40;;;;;;;2.17;0.60;;;;;10.00;98566.00;;;;10351558;28;20230;-80
2024/03/29 01:28:41;;;;;;;1.87;1.20;;;;;10.00;98557.00;;;;10339050;28;20237;-79
2024/03/29 01:33:42;;;;;;;3.23;0.73;;;;;10.10;98553.00;;;;10368453;28;20892;-79
2024/03/29 01:38:45;;;;;;;2.53;0.70;;;;;10.10;98566.00;;;;10345741;28;20602;-79
2024/03/29 01:43:46;;;;;;;2.30;0.60;;;;;10.10;98556.00;;;;10347982;28;20877;-79
2024/03/29 01:48:47;;;;;;;2.07;0.57;;;;;10.00;98543.00;;;;10348246;28;20218;-79
2024/03/29 01:53:51;;;;;;;1.70;0.60;;;;;9.90;98560.00;;;;10351327;28;20766;-79
2024/03/29 01:58:56;;;;;;;1.43;0.50;;;;;9.90;98559.00;;;;10364188;28;20227;-80
2024/03/29 02:03:57;;;;;;;3.90;0.60;;;;;9.80;98563.00;;;;10343025;28;20219;-80
2024/03/29 02:08:58;;;;;;;2.23;0.60;;;;;9.70;98574.00;;;;10351443;28;20923;-79
2024/03/29 02:14:00;;;;;;;0.70;0.47;;;;;9.60;98569.00;;;;10336949;28;20241;-79
2024/03/29 02:19:01;;;;;;;0.73;0.40;;;;;9.50;98574.00;;;;10364891;28;20241;-78
2024/03/29 02:24:09;;;;;;;0.30;0.30;;;;;9.30;98592.00;;;;10338352;28;20223;-79
2024/03/29 02:29:10;;;;;;;1.27;0.50;;;;;9.10;98580.00;;;;10347730;28;20242;-79
2024/03/29 02:34:11;;;;;;;3.47;0.40;;;;;8.90;98585.00;;;;10365093;28;20231;-81
2024/03/29 02:39:12;;;;;;;2.43;0.67;;;;;8.80;98589.00;;;;10340000;28;20226;-79
2024/03/29 02:44:15;;;;;;;0.77;0.30;;;;;8.60;98605.00;;;;10358029;28;20214;-82
2024/03/29 02:49:16;;;;;;;0.93;0.50;;;;;8.30;98599.00;;;;10357412;28;20284;-83
2024/03/29 02:54:17;;;;;;;3.50;0.57;;;;;8.10;98604.00;;;;10366611;28;20567;-82
2024/03/29 02:59:18;;;;;;;1.90;0.73;;;;;8.00;98604.00;;;;10330485;28;20276;-83
2024/03/29 03:04:19;;;;;;;0.83;0.40;;;;;7.90;98613.00;;;;10318409;28;20212;-83
2024/03/29 03:14:41;;;;;;;1.60;0.80;;;;;7.70;98620.00;;;;10356308;28;20238;-84
2024/03/29 03:19:42;;;;;;;1.97;0.60;;;;;7.60;98620.00;;;;10335310;28;20219;-84
2024/03/29 03:24:43;;;;;;;2.10;0.80;;;;;7.50;98634.00;;;;10332495;28;20235;-84
2024/03/29 03:29:45;;;;;;;2.93;0.77;;;;;7.40;98631.00;;;;10331670;28;20898;-86
2024/03/29 03:34:46;;;;;;;1.70;0.60;;;;;7.30;98615.00;;;;10353361;28;20891;-83
2024/03/29 03:39:47;;;;;;;3.00;0.87;;;;;7.30;98631.00;;;;10336757;28;20219;-83
2024/03/29 03:44:48;;;;;;;4.33;0.83;;;;;7.20;98617.00;;;;10345495;28;20750;-82
2024/03/29 03:49:49;;;;;;;4.47;1.00;;;;;7.20;98625.00;;;;10355314;28;20210;-83
2024/03/29 03:54:50;;;;;;;2.57;0.80;;;;;7.20;98612.00;;;;10384774;28;20249;-82
2024/03/29 03:59:51;;;;;;;1.53;0.80;;;;;7.20;98590.00;;;;10368636;28;20217;-82
2024/03/29 04:04:52;;;;;;;2.80;0.80;;;;;7.10;98588.00;;;;10392776;28;20319;-82
2024/03/29 04:09:53;;;;;;;4.07;1.10;;;;;7.10;98582.00;;;;10340739;28;20222;-81
2024/03/29 04:14:55;;;;;;;2.40;0.80;;;;;7.10;98589.00;;;;10339747;28;20227;-81
2024/03/29 04:19:59;;;;;;;3.40;0.90;;;;;7.10;98584.00;;;;10351893;28;20241;-80
2024/03/29 04:25:01;;;;;;;1.70;0.70;;;;;7.00;98604.00;;;;10353636;28;20230;-83
2024/03/29 04:30:02;;;;;;;2.97;1.30;;;;;7.00;98579.00;;;;10361999;28;20217;-83
2024/03/29 04:35:04;;;;;;;2.50;0.80;;;;;7.10;98588.00;;;;10335935;28;20226;-82
2024/03/29 04:40:06;;;;;;;2.33;0.83;;;;;7.00;98581.00;;;;10337828;28;20219;-82
2024/03/29 04:45:07;;;;;;;0.97;0.73;;;;;7.00;98576.00;;;;10330825;28;20813;-81
2024/03/29 04:50:09;;;;;;;2.03;0.93;;;;;7.00;98571.00;;;;10344646;28;20226;-80
2024/03/29 04:55:11;;;;;;;2.13;0.80;;;;;7.00;98579.00;;;;10355706;28;20230;-80
2024/03/29 05:00:12;;;;;;;2.93;0.90;;;;;7.00;98572.00;;;;10336042;28;20214;-85
2024/03/29 05:05:13;;;;;;;2.33;0.80;;;;;6.90;98564.00;;;;10344512;28;20244;-85
2024/03/29 05:10:15;;;;;;;2.00;0.80;;;;;6.90;98564.00;;;;10365096;28;20219;-84
2024/03/29 05:15:16;;;;;;;3.20;0.73;;;;;6.90;98557.00;;;;10361850;28;20722;-84
2024/03/29 05:20:17;;;;;;;1.73;0.80;;;;;6.90;98562.00;;;;10334155;28;20223;-83
2024/03/29 05:25:18;;;;;;;2.33;0.60;;;;;6.90;98581.00;;;;10357661;28;20269;-83
2024/03/29 05:30:19;;;;;;;2.20;0.87;;;;;6.90;98592.00;;;;10337171;28;20625;-83
2024/03/29 05:35:20;;;;;;;2.47;1.23;;;;;6.90;98604.00;;;;10367951;28;20245;-83
2024/03/29 05:40:25;;;;;;;2.97;1.00;;;;;6.90;98614.00;;;;10360843;28;20219;-82
2024/03/29 05:45:28;;;;;;;2.63;1.00;;;;;7.00;98626.00;;;;10339498;28;20715;-82
2024/03/29 05:50:29;;;;;;;1.33;0.80;;;;;7.00;98632.00;;;;10369083;28;20222;-83
2024/03/29 05:55:30;;;;;;;2.60;1.00;;;;;7.00;98630.00;;;;10354684;28;20296;-82
2024/03/29 06:00:34;;;;;;;2.53;1.03;;;;;7.00;98621.00;;;;10352848;28;20226;-82
2024/03/29 06:05:35;;;;;;;5.00;1.20;;;;;7.20;98614.00;;;;10376773;28;20246;-82
2024/03/29 06:10:36;;;;;;;1.53;0.97;;;;;7.30;98617.00;;;;10360505;28;20215;-80
2024/03/29 06:20:57;;;;;;;2.67;1.30;;;;;7.60;98613.00;;;;10363284;28;20744;-79
2024/03/29 06:25:58;;;;;;;7.37;1.20;;;;;7.70;98591.00;;;;10352948;28;20227;-79
2024/03/29 06:31:02;;;;;;;2.93;1.00;;;;;7.90;98604.00;;;;10346594;28;20230;-79
2024/03/29 06:36:03;;;;;;;4.20;1.30;;;;;8.00;98610.00;;;;10350193;28;20828;-78
2024/03/29 06:41:04;;;;;;;5.00;1.00;;;;;7.90;98597.00;;;;10344246;28;20222;-80
2024/03/29 06:46:05;;;;;;;7.23;1.30;;;;;8.10;98599.00;;;;10354608;28;20231;-79
2024/03/29 06:51:07;;;;;;;4.47;1.30;;;;;8.40;98604.00;;;;10351039;28;20238;-79
2024/03/29 06:56:08;;;;;;;4.10;1.00;;;;;8.60;98620.00;;;;10346059;28;20614;-79
2024/03/29 07:01:09;;;;;;;3.90;1.50;;;;;9.00;98636.00;;;;10358938;28;21316;-80
2024/03/29 07:06:10;;;;;;;7.27;1.30;;;;;9.20;98640.00;;;;10328530;28;20219;-79
2024/03/29 07:11:11;;;;;;;2.73;1.10;;;;;9.10;98636.00;;;;10315659;28;20780;-80
2024/03/29 07:16:12;;;;;;;3.87;1.60;;;;;8.80;98640.00;;;;10312364;28;20218;-80
2024/03/29 07:21:13;;;;;;;3.93;1.03;;;;;8.60;98645.00;;;;10304178;28;20306;-81
2024/03/29 07:26:14;;;;;;;3.53;1.57;;;;;8.50;98636.00;;;;10312886;28;20314;-80
2024/03/29 07:31:15;;;;;;;2.67;1.47;;;;;8.70;98630.00;;;;10344750;28;20408;-82
2024/03/29 07:36:17;;;;;;;4.57;1.50;;;;;9.00;98617.00;;;;10346091;28;20224;-81
2024/03/29 07:41:18;;;;;;;3.37;1.30;;;;;9.00;98608.00;;;;10357836;28;20225;-81
2024/03/29 07:46:19;;;;;;;5.30;1.60;;;;;9.10;98607.00;;;;10349519;28;20696;-82
2024/03/29 07:51:20;;;;;;;3.03;1.30;;;;;9.30;98625.00;;;;10380084;28;20265;-82
2024/03/29 07:56:22;;;;;;;3.10;1.80;;;;;9.40;98626.00;;;;10357578;28;20222;-80
2024/03/29 08:01:23;;;;;;;2.47;1.70;;;;;9.60;98642.00;;;;10339655;28;21036;-82
2024/03/29 08:06:24;;;;;;;5.27;1.70;;;;;10.10;98654.00;;;;10353961;28;20222;-81
2024/03/29 08:11:26;;;;;;;4.33;2.07;;;;;10.20;98640.00;;;;10342758;28;20268;-81
2024/03/29 08:16:27;;;;;;;2.67;1.70;;;;;10.10;98653.00;;;;10344166;28;20277;-81
2024/03/29 08:21:28;;;;;;;3.43;1.70;;;;;10.10;98661.00;;;;10337098;28;20269;-81
2024/03/29 08:26:29;;;;;;;4.40;1.90;;;;;10.50;98673.00;;;;10330995;28;20218;-81
2024/03/29 08:31:30;;;;;;;6.03;1.80;;;;;10.80;98677.00;;;;10318250;28;20231;-84
2024/03/29 08:36:31;;;;;;;5.27;1.97;;;;;11.10;98672.00;;;;10309191;28;20242;-83
2024/03/29 08:41:33;;;;;;;5.27;2.20;;;;;11.70;98673.00;;;;10337226;28;20219;-82
2024/03/29 08:46:33;;;;;;;4.00;1.70;;;;;11.60;98679.00;;;;10337369;28;20803;-84
2024/03/29 08:51:34;;;;;;;4.23;1.77;;;;;11.70;98696.00;;;;10346285;28;20234;-83
2024/03/29 08:56:36;;;;;;;5.87;1.93;;;;;11.70;98690.00;;;;10351130;28;20219;-84
2024/03/29 09:01:41;;;;;;;6.43;1.87;;;;;12.00;98688.00;;;;10360169;28;20227;-83
2024/03/29 09:06:43;;;;;;;2.83;1.67;;;;;12.70;98693.00;;;;10356907;28;20634;-85
2024/03/29 09:11:43;;;;;;;3.47;1.77;;;;;14.00;98702.00;;;;10338511;28;20260;-83
2024/03/29 09:16:47;;;;;;;2.50;1.10;;;;;14.90;98718.00;;;;10359437;28;20742;-84
2024/03/29 09:21:48;;;;;;;2.13;1.10;;;;;15.00;98734.00;;;;10333422;28;20227;-83
2024/03/29 09:26:50;;;;;;;2.08;0.80;;;;;15.00;98738.00;;;;10345224;28;20215;-85
2024/03/29 09:31:51;;;;;;;1.57;0.70;;;;;14.80;98749.00;;;;10329769;28;20716;-82
2024/03/29 09:36:52;;;;;;;2.58;1.00;;;;;14.90;98762.00;;;;10354842;28;20219;-83
2024/03/29 09:41:54;;;;;;;1.88;1.00;;;;;15.30;98763.00;;;;10349243;28;20667;-86
2024/03/29 09:46:56;;;;;;;2.13;0.68;;;;;14.80;98751.00;;;;10343696;28;20211;-83
2024/03/29 09:51:59;;;;;;;2.30;0.80;;;;;14.70;98740.00;;;;10349406;28;20318;-83
2024/03/29 09:57:04;;;;;;;1.83;1.00;;;;;14.80;98730.00;;;;10339470;28;20246;-84
2024/03/29 10:02:16;;;;;;;6.35;0.88;;;;;15.60;98753.00;;;;10343100;28;20226;-83
2024/03/29 10:07:19;;;;;;;1.63;0.70;;;;;16.70;98749.00;;;;10355164;28;20855;-84
2024/03/29 10:12:20;;;;;;;1.33;0.90;;;;;16.70;98762.00;;;;10354964;28;20259;-84
2024/03/29 10:17:21;;;;;;;1.23;0.80;;;;;17.20;98767.00;;;;10346673;28;20222;-85
2024/03/29 10:22:22;;;;;;;1.83;1.25;;;;;17.00;98769.00;;;;10346814;28;20227;-84
2024/03/29 10:27:27;;;;;;;2.60;0.95;;;;;16.70;98774.00;;;;10372302;28;20211;-85
2024/03/29 10:32:28;;;;;;;1.48;0.85;;;;;16.70;98803.00;;;;10353694;28;20696;-85
2024/03/29 10:37:32;;;;;;;1.17;0.93;;;;;16.50;98787.00;;;;10390319;28;20222;-84
2024/03/29 10:42:36;;;;;;;1.05;0.98;;;;;17.20;98783.00;;;;10373175;28;20230;-84
2024/03/29 10:47:38;;;;;;;1.42;1.00;;;;;18.40;98767.00;;;;10374158;28;20214;-85
2024/03/29 10:52:43;;;;;;;1.95;0.90;;;;;19.20;98763.00;;;;10378285;28;20684;-81
2024/03/29 10:57:46;;;;;;;1.50;1.08;;;;;17.70;98762.00;;;;10359005;28;20276;-81
2024/03/29 11:03:17;;;;;;;1.73;1.10;;;;;17.60;98774.00;;;;10345812;28;20219;-82
2024/03/29 11:08:31;;;;;;;1.20;1.10;;;;;18.30;98777.00;;;;10363680;28;20218;-81
2024/03/29 11:14:07;;;;;;;1.15;1.00;;;;;18.80;98776.00;;;;10339023;28;20231;-81
2024/03/29 11:19:09;;;;;;;2.55;1.30;;;;;19.00;98779.00;;;;10335764;28;20875;-80
2024/03/29 11:24:10;;;;;;;2.20;1.30;;;;;19.60;98788.00;;;;10332183;28;20326;-81
2024/03/29 11:29:22;;;;;;;3.47;0.90;;;;;19.60;98792.00;;;;10349630;28;20591;-81
2024/03/29 11:34:24;;;;;;;1.75;0.90;;;;;19.40;98792.00;;;;10379480;28;20896;-81
2024/03/29 11:39:26;;;;;;;1.27;0.70;;;;;20.00;98803.00;;;;10339096;28;20763;-81
2024/03/29 11:44:27;;;;;;;1.35;0.93;;;;;20.30;98804.00;;;;10336538;28;20223;-82
2024/03/29 11:49:28;;;;;;;2.25;0.90;;;;;20.80;98807.00;;;;10346689;28;20574;-82
2024/03/29 11:54:29;;;;;;;0.50;0.50;;;;;20.80;98812.00;;;;10334028;28;20231;-81
2024/03/29 11:59:30;;;;;;;0.95;0.60;;;;;19.80;98818.00;;;;10350287;28;20222;-81
2024/03/29 12:04:31;;;;;;;2.28;0.65;;;;;19.40;98817.00;;;;10335502;28;20223;-83
2024/03/29 12:09:32;;;;;;;0.82;0.38;;;;;19.30;98811.00;;;;10353516;28;20215;-83
2024/03/29 12:14:37;;;;;;;0.70;0.65;;;;;19.30;98815.00;;;;10353535;28;20210;-84
2024/03/29 12:19:41;;;;;;;0.77;0.60;;;;;19.40;98808.00;;;;10349782;28;20866;-83
2024/03/29 12:24:43;;;;;;;1.42;0.50;;;;;19.90;98821.00;;;;10337197;28;20235;-85
2024/03/29 12:29:43;;;;;;;0.75;0.60;;;;;19.80;98809.00;;;;10349331;28;20226;-83
2024/03/29 12:34:44;;;;;;;1.50;0.98;;;;;20.30;98826.00;;;;10363202;28;20257;-84
2024/03/29 12:39:49;;;;;;;1.55;1.02;;;;;20.20;98829.00;;;;10354816;28;20218;-83
2024/03/29 12:44:52;;;;;;;2.17;0.90;;;;;20.20;98838.00;;;;10370628;28;20223;-83
2024/03/29 12:49:54;;;;;;;1.17;0.75;;;;;20.90;98827.00;;;;10337232;28;20227;-85
2024/03/29 12:54:55;;;;;;;2.38;0.93;;;;;20.20;98855.00;;;;10337190;28;20248;-83
2024/03/29 12:59:56;;;;;;;1.52;1.00;;;;;19.70;98834.00;;;;10363424;28;20251;-82
2024/03/29 13:04:59;;;;;;;0.98;0.75;;;;;19.80;98844.00;;;;10342702;28;20222;-84
2024/03/29 13:10:10;;;;;;;1.45;0.60;;;;;20.50;98833.00;;;;10362092;28;20285;-81
2024/03/29 13:15:20;;;;;;;1.40;0.60;;;;;20.60;98841.00;;;;10337484;28;20349;-81
2024/03/29 13:20:23;;;;;;;1.00;0.75;;;;;21.00;98849.00;;;;10374160;28;20257;-82
2024/03/29 13:25:24;;;;;;;1.70;0.95;;;;;20.90;98863.00;;;;10352207;28;20208;-80
2024/03/29 13:30:26;;;;;;;0.85;0.68;;;;;20.00;98847.00;;;;10342999;28;20309;-81
2024/03/29 13:35:28;;;;;;;1.95;0.60;;;;;20.50;98833.00;;;;10341029;28;20583;-82
2024/03/29 13:40:30;;;;;;;1.30;0.80;;;;;20.30;98835.00;;;;10342089;28;20222;-84
2024/03/29 13:45:31;;;;;;;1.80;0.82;;;;;20.00;98850.00;;;;10344558;28;20219;-84
2024/03/29 13:50:32;;;;;;;2.33;1.23;;;;;20.00;98867.00;;;;10369511;28;20222;-83
2024/03/29 13:55:33;;;;;;;0.90;0.80;;;;;19.80;98858.00;;;;10354701;28;20226;-83
2024/03/29 14:00:34;;;;;;;5.03;1.20;;;;;19.60;98864.00;;;;10349797;28;20717;-83
2024/03/29 14:05:36;;;;;;;1.05;0.68;;;;;19.00;98867.00;;;;10374743;28;20221;-85
2024/03/29 14:10:37;;;;;;;0.80;0.65;;;;;19.00;98861.00;;;;10336165;28;20230;-84
2024/03/29 14:15:38;;;;;;;1.58;0.57;;;;;18.50;98872.00;;;;10348960;28;20219;-81
2024/03/29 14:20:39;;;;;;;3.08;0.85;;;;;18.30;98867.00;;;;10370995;28;20234;-77
2024/03/29 14:25:40;;;;;;;1.65;0.88;;;;;18.20;98880.00;;;;10349025;28;20223;-75
2024/03/29 14:30:41;;;;;;;1.02;0.75;;;;;17.80;98875.00;;;;10339071;28;20416;-76
2024/03/29 14:35:42;;;;;;;1.83;1.00;;;;;19.00;98857.00;;;;10348803;28;20286;-78
2024/03/29 14:40:43;;;;;;;2.30;1.30;;;;;18.70;98890.00;;;;10357101;28;21079;-75
2024/03/29 14:45:44;;;;;;;2.03;1.23;;;;;17.70;98874.00;;;;10344413;28;20218;-77
2024/03/29 14:50:45;;;;;;;5.75;1.02;;;;;19.40;98867.00;;;;10341166;28;20893;-77
2024/03/29 14:55:46;;;;;;;1.67;0.60;;;;;18.80;98846.00;;;;10369118;28;20315;-78
2024/03/29 15:00:48;;;;;;;1.50;0.77;;;;;20.10;98830.00;;;;10341937;28;20215;-78
2024/03/29 15:05:48;;;;;;;2.95;0.77;;;;;19.60;98842.00;;;;10338744;28;20226;-80
2024/03/29 15:11:00;;;;;;;2.42;0.80;;;;;18.20;98873.00;;;;10362226;28;20675;-78
2024/03/29 15:16:02;;;;;;;2.55;0.80;;;;;18.10;98874.00;;;;10365672;28;20220;-78
2024/03/29 15:21:04;;;;;;;3.05;0.55;;;;;17.90;98882.00;;;;10305542;28;20266;-78
2024/03/29 15:26:05;;;;;;;2.08;0.80;;;;;17.40;98894.00;;;;10317508;28;20902;-78
2024/03/29 15:31:16;;;;;;;4.00;0.70;;;;;17.40;98910.00;;;;10313078;28;20215;-83
2024/03/29 15:36:18;;;;;;;2.00;0.80;;;;;17.50;98896.00;;;;10391790;28;20214;-84
2024/03/29 15:41:19;;;;;;;2.90;0.73;;;;;17.30;98895.00;;;;10371118;28;20751;-82
2024/03/29 15:46:20;;;;;;;2.78;1.48;;;;;17.10;98914.00;;;;10351687;28;20276;-83
2024/03/29 15:51:21;;;;;;;3.00;0.95;;;;;16.90;98922.00;;;;10346299;28;20238;-82
2024/03/29 15:56:22;;;;;;;2.58;1.13;;;;;17.20;98934.00;;;;10364463;28;20670;-83
2024/03/29 16:01:24;;;;;;;3.22;0.80;;;;;17.20;98916.00;;;;10337270;28;20234;-82
2024/03/29 16:06:25;;;;;;;2.50;1.00;;;;;16.90;98912.00;;;;10366650;28;20222;-82
2024/03/29 16:11:36;;;;;;;2.22;0.80;;;;;16.80;98911.00;;;;10344434;28;20215;-83
2024/03/29 16:16:40;;;;;;;5.32;0.93;;;;;16.70;98914.00;;;;10359366;28;20227;-83
2024/03/29 16:21:40;;;;;;;1.10;0.70;;;;;16.60;98904.00;;;;10372025;28;20231;-83
2024/03/29 16:26:41;;;;;;;2.05;0.90;;;;;16.40;98901.00;;;;10367899;28;20219;-85
2024/03/29 16:31:42;;;;;;;1.38;0.73;;;;;16.10;98898.00;;;;10343483;28;20953;-82
2024/03/29 16:36:44;;;;;;;1.92;0.90;;;;;16.00;98893.00;;;;10357658;28;20219;-82
2024/03/29 16:41:47;;;;;;;1.58;0.85;;;;;15.70;98896.00;;;;10354100;28;20218;-82
2024/03/29 16:46:48;;;;;;;2.72;0.73;;;;;15.40;98888.00;;;;10329650;28;20594;-80
2024/03/29 16:51:49;;;;;;;3.92;1.40;;;;;15.40;98882.00;;;;10332287;28;21203;-79
2024/03/29 16:56:50;;;;;;;3.95;1.42;;;;;15.30;98887.00;;;;10347371;28;20227;-81
2024/03/29 17:01:51;;;;;;;2.28;0.90;;;;;15.30;98887.00;;;;10348366;28;20222;-82
2024/03/29 17:06:52;;;;;;;4.18;1.42;;;;;15.00;98889.00;;;;10349443;28;20252;-82
2024/03/29 17:11:53;;;;;;;1.42;0.80;;;;;14.80;98892.00;;;;10377011;28;20264;-81
2024/03/29 17:16:55;;;;;;;1.35;0.95;;;;;14.70;98884.00;;;;10340467;28;20255;-82
2024/03/29 17:21:56;;;;;;;2.17;0.88;;;;;14.60;98885.00;;;;10378734;28;20230;-81
2024/03/29 17:26:58;;;;;;;1.65;0.65;;;;;14.50;98892.00;;;;10353689;28;20230;-80
2024/03/29 17:31:59;;;;;;;3.05;1.30;;;;;14.40;98887.00;;;;10332856;28;20223;-81
2024/03/29 17:37:00;;;;;;;2.25;1.00;;;;;14.30;98902.00;;;;10355193;28;20289;-81
2024/03/29 17:42:02;;;;;;;2.25;0.65;;;;;14.20;98901.00;;;;10360253;28;20249;-81
2024/03/29 17:47:03;;;;;;;2.40;1.08;;;;;14.10;98915.00;;;;10378910;28;20276;-81
2024/03/29 17:52:05;;;;;;;3.17;1.00;;;;;14.00;98913.00;;;;10352814;28;20223;-81
2024/03/29 17:57:06;;;;;;;3.65;0.90;;;;;13.90;98919.00;;;;10362279;28;20206;-82
2024/03/29 18:02:07;;;;;;;3.15;1.17;;;;;13.80;98918.00;;;;10343869;28;20621;-81
2024/03/29 18:07:08;;;;;;;3.67;1.30;;;;;13.70;98901.00;;;;10347108;28;20225;-80
2024/03/29 18:12:09;;;;;;;2.43;1.70;;;;;13.70;98906.00;;;;10335507;28;20234;-80
2024/03/29 18:17:09;;;;;;;3.08;1.63;;;;;13.60;98901.00;;;;10362699;28;20613;-78
2024/03/29 18:22:11;;;;;;;2.70;1.67;;;;;13.50;98912.00;;;;10343657;28;20261;-79
2024/03/29 18:27:12;;;;;;;4.60;2.20;;;;;13.50;98917.00;;;;10352785;28;20677;-79
2024/03/29 18:32:13;;;;;;;3.50;1.80;;;;;13.40;98921.00;;;;10366244;28;20230;-80
2024/03/29 18:37:14;;;;;;;3.93;1.67;;;;;13.40;98931.00;;;;10328205;28;20683;-82
2024/03/29 18:42:14;;;;;;;1.90;1.38;;;;;13.40;98942.00;;;;10365573;28;20675;-81
2024/03/29 18:47:16;;;;;;;3.00;1.70;;;;;13.40;98957.00;;;;10362821;28;20222;-80
2024/03/29 18:52:16;;;;;;;2.93;1.47;;;;;13.30;98965.00;;;;10361299;28;20551;-78
2024/03/29 18:57:22;;;;;;;5.57;1.47;;;;;13.30;98979.00;;;;10348845;28;20804;-81
2024/03/29 19:02:23;;;;;;;2.50;1.30;;;;;13.20;98978.00;;;;10345815;28;20301;-80
2024/03/29 19:07:24;;;;;;;2.47;1.37;;;;;13.20;98993.00;;;;10338993;28;20281;-80
2024/03/29 19:12:24;;;;;;;1.10;1.00;;;;;13.10;99003.00;;;;10360001;28;20961;-76
2024/03/29 19:17:25;;;;;;;3.40;1.23;;;;;13.10;98997.00;;;;10363382;28;20234;-81
2024/03/29 19:22:26;;;;;;;1.93;0.90;;;;;13.00;98995.00;;;;10353365;28;20229;-78
2024/03/29 19:27:27;;;;;;;4.83;1.53;;;;;13.00;99002.00;;;;10346915;28;20227;-79
2024/03/29 19:32:28;;;;;;;2.47;1.07;;;;;12.90;98985.00;;;;10348832;28;20231;-78
2024/03/29 19:37:29;;;;;;;2.80;0.93;;;;;12.90;99008.00;;;;10365416;28;20223;-78
2024/03/29 19:42:30;;;;;;;2.33;1.10;;;;;12.80;99000.00;;;;10373510;28;20225;-79
2024/03/29 19:47:31;;;;;;;1.60;1.10;;;;;12.80;99002.00;;;;10349777;28;20284;-77
2024/03/29 19:52:33;;;;;;;1.43;0.93;;;;;12.70;99001.00;;;;10351290;28;20690;-79
2024/03/29 19:57:34;;;;;;;0.90;0.90;;;;;12.70;99014.00;;;;10344873;28;20233;-79
2024/03/29 20:02:36;;;;;;;2.53;1.10;;;;;12.70;99010.00;;;;10352222;28;20277;-81
2024/03/29 20:07:38;;;;;;;1.53;1.07;;;;;12.60;99020.00;;;;10332406;28;20635;-80
2024/03/29 20:12:39;;;;;;;1.60;1.00;;;;;12.60;99018.00;;;;10358852;28;20239;-79
2024/03/29 20:17:40;;;;;;;1.07;0.80;;;;;12.60;99025.00;;;;10365264;28;20221;-77
2024/03/29 20:22:40;;;;;;;2.23;1.10;;;;;12.50;99038.00;;;;10369094;28;20226;-79
2024/03/29 20:27:41;;;;;;;4.00;1.20;;;;;12.30;99053.00;;;;10337906;28;20245;-81
2024/03/29 20:32:47;;;;;;;1.20;1.10;;;;;12.10;99055.00;;;;10340260;28;20230;-81
2024/03/29 20:37:48;;;;;;;1.70;1.10;;;;;11.90;99042.00;;;;10340801;28;20228;-78
2024/03/29 20:42:49;;;;;;;2.60;0.90;;;;;11.70;99051.00;;;;10362117;28;21758;-80
2024/03/29 20:47:50;;;;;;;1.17;0.90;;;;;11.50;99052.00;;;;10367633;28;20218;-78
2024/03/29 20:52:58;;;;;;;1.80;1.00;;;;;11.50;99058.00;;;;10366660;28;20961;-79
2024/03/29 20:57:59;;;;;;;1.77;1.10;;;;;11.50;99062.00;;;;10356605;28;20232;-78
2024/03/29 21:08:19;;;;;;;1.47;0.90;;;;;11.50;99082.00;;;;10350654;28;20214;-79
2024/03/29 21:13:20;;;;;;;0.50;0.50;;;;;11.50;99085.00;;;;10346352;28;20242;-80
2024/03/29 21:18:21;;;;;;;3.33;0.70;;;;;11.50;99088.00;;;;10347554;28;20217;-80
2024/03/29 21:23:22;;;;;;;2.10;0.90;;;;;11.50;99088.00;;;;10362423;28;20223;-79
2024/03/29 21:28:23;;;;;;;1.40;0.70;;;;;11.50;99105.00;;;;10333470;28;20230;-79
2024/03/29 21:33:24;;;;;;;2.50;0.93;;;;;11.40;99111.00;;;;10341441;28;20900;-81
2024/03/29 21:38:24;;;;;;;1.80;0.80;;;;;11.40;99109.00;;;;10351754;28;20438;-82
2024/03/29 21:43:26;;;;;;;1.20;0.80;;;;;11.40;99117.00;;;;10331120;28;20305;-82
2024/03/29 21:48:27;;;;;;;1.60;0.60;;;;;11.30;99131.00;;;;10339714;28;20284;-80
2024/03/29 21:53:28;;;;;;;0.90;0.40;;;;;11.30;99130.00;;;;10360493;28;20237;-79
2024/03/29 21:58:29;;;;;;;8.20;0.70;;;;;11.30;99133.00;;;;10343941;28;20859;-81
2024/03/29 22:03:30;;;;;;;1.53;0.70;;;;;11.30;99137.00;;;;10349382;28;20218;-80
2024/03/29 22:08:31;;;;;;;1.70;0.50;;;;;11.30;99139.00;;;;10382149;28;20852;-79
2024/03/29 22:13:32;;;;;;;1.27;0.40;;;;;11.30;99144.00;;;;10358104;28;20224;-77
2024/03/29 22:18:33;;;;;;;0.70;0.70;;;;;11.20;99143.00;;;;10354208;28;20219;-80
2024/03/29 22:23:34;;;;;;;0.50;0.40;;;;;11.10;99140.00;;;;10330940;28;20853;-81
2024/03/29 22:28:35;;;;;;;1.07;0.60;;;;;11.00;99143.00;;;;10345512;28;20261;-81
2024/03/29 22:33:36;;;;;;;2.17;0.70;;;;;11.00;99149.00;;;;10332150;28;20251;-85
2024/03/29 22:38:37;;;;;;;1.33;0.53;;;;;11.00;99148.00;;;;10344093;28;20239;-83
2024/03/29 22:43:38;;;;;;;3.80;0.80;;;;;10.90;99144.00;;;;10332631;28;20232;-85
2024/03/29 22:48:38;;;;;;;1.03;0.60;;;;;10.90;99154.00;;;;10367545;28;20257;-86
2024/03/29 22:53:39;;;;;;;0.57;0.40;;;;;10.90;99147.00;;;;10333705;28;20222;-86
2024/03/29 22:58:42;;;;;;;1.00;0.67;;;;;10.80;99156.00;;;;10339081;28;20215;-85
2024/03/29 23:03:43;;;;;;;1.40;0.60;;;;;10.80;99146.00;;;;10371089;28;20211;-84
2024/03/29 23:08:44;;;;;;;1.90;0.70;;;;;10.70;99154.00;;;;10360734;28;20697;-84
2024/03/29 23:13:45;;;;;;;0.90;0.60;;;;;10.60;99134.00;;;;10338830;28;20227;-84
2024/03/29 23:18:46;;;;;;;0.50;0.50;;;;;10.50;99135.00;;;;10363438;28;20215;-85
2024/03/29 23:23:47;;;;;;;2.73;0.60;;;;;10.40;99133.00;;;;10369639;28;20219;-84
2024/03/29 23:28:48;;;;;;;0.97;0.73;;;;;10.30;99127.00;;;;10369056;28;20223;-84
2024/03/29 23:33:49;;;;;;;0.87;0.73;;;;;10.30;99127.00;;;;10371148;28;20996;-84
2024/03/29 23:38:50;;;;;;;2.17;0.70;;;;;10.30;99113.00;;;;10363839;28;20569;-83
2024/03/29 23:43:51;;;;;;;1.07;0.70;;;;;10.30;99101.00;;;;10351060;28;20249;-81
2024/03/29 23:48:52;;;;;;;1.80;1.13;;;;;10.30;99090.00;;;;10366375;28;20272;-81
2024/03/29 23:53:53;;;;;;;1.57;0.87;;;;;10.20;99075.00;;;;10328724;28;20238;-81
2024/03/29 23:58:57;;;;;;;3.07;1.07;;;;;10.10;99073.00;;;;10367588;28;20206;-82
